Air Resources Laboratory banner image
Air Resources Laboratory web site National Oceanic and Atmospheric Administration (NOAA)

md metar


KADW 192356Z AUTO 18008KT 3SM BR OVC002 08/08 A3034 RMK AO2 SLP283 T00830080
 10083 20061 56003 $=
KAPG 192348Z AUTO 00000KT 2SM R22/3000FT BR OVC003 M A3036 RMK AO2 SLPNO $=
KBWI 192354Z 00000KT 1/8SM R10/2800V3500FT -DZ FG VV003 07/07 A3033 RMK AO2
 SLP272 P0000 60000 T00670067 10067 20056 56007=
KDMH 192354Z AUTO 06/06 A3035 RMK AO1 SLP275 T00560056 10061 20056 58007=
KFME 192357Z AUTO 00000KT 2SM OVC002 07/06 A3037 RMK AO1=
KHGR 192353Z 15005KT 10SM BKN008 09/07 A3029 RMK AO2 SLP271 60002 T00890072
 10128 20083 53008=
KMTN 192345Z 00000KT 3/4SM BR OVC003 06/06 A3037=
KNHK 192352Z AUTO 11003KT 7SM OVC004 09/09 A3037 RMK AO2 SLP283 T00940094 10100
 20061 53001=
KOXB 192353Z AUTO 21006KT 10SM OVC009 11/10 A3040 RMK AO2 SLP292 T01060100
 10117 20089 55002=
KSBY 192354Z 19008KT 10SM OVC006 13/13 A3038 RMK AO2 SLP290 T01330133 10144
 20128 53001=